createdAt,value
2019-05-19T00:02:13.065Z,99.90
2019-05-19T00:04:43.421Z,99.90
2019-05-19T00:07:13.407Z,99.90
2019-05-19T00:09:43.530Z,99.90
2019-05-19T00:12:13.329Z,99.90
2019-05-19T00:14:43.399Z,99.90
2019-05-19T00:17:13.522Z,99.90
2019-05-19T00:19:43.424Z,99.90
2019-05-19T00:22:13.299Z,99.90
2019-05-19T00:24:43.146Z,99.90
2019-05-19T00:27:13.064Z,99.90
2019-05-19T00:29:43.186Z,99.90
2019-05-19T00:32:13.444Z,99.90
2019-05-19T00:34:43.260Z,99.90
2019-05-19T00:37:13.074Z,99.90
2019-05-19T00:39:42.939Z,99.90
2019-05-19T00:42:13.338Z,99.90
2019-05-19T00:44:43.390Z,99.90
2019-05-19T00:47:13.637Z,99.90
2019-05-19T00:49:44.038Z,99.90
2019-05-19T00:52:14.023Z,99.90
2019-05-19T00:54:43.964Z,99.90
2019-05-19T00:57:15.170Z,99.90
2019-05-19T00:59:46.234Z,99.90
2019-05-19T01:02:16.332Z,99.90
2019-05-19T01:04:46.178Z,99.90
2019-05-19T01:07:16.158Z,99.90
2019-05-19T01:09:45.882Z,99.90
2019-05-19T01:12:15.701Z,99.90
2019-05-19T01:14:45.581Z,99.90
2019-05-19T01:17:15.512Z,99.90
2019-05-19T01:19:55.645Z,99.90
2019-05-19T01:22:16.987Z,99.90
2019-05-19T01:24:46.846Z,99.90
2019-05-19T01:27:17.226Z,99.90
2019-05-19T01:29:47.175Z,99.90
2019-05-19T01:32:17.150Z,99.90
2019-05-19T01:34:47.108Z,99.90
2019-05-19T01:37:17.088Z,99.90
2019-05-19T01:39:47.037Z,99.90
2019-05-19T01:42:17.938Z,99.90
2019-05-19T01:44:47.886Z,99.90
2019-05-19T01:47:17.558Z,99.90
2019-05-19T01:49:47.607Z,99.90
2019-05-19T01:52:17.585Z,99.90
2019-05-19T01:54:47.430Z,99.90
2019-05-19T01:57:17.462Z,99.90
2019-05-19T01:59:47.790Z,99.90
2019-05-19T02:02:18.062Z,99.90
2019-05-19T02:04:48.117Z,99.90
2019-05-19T02:07:19.289Z,99.90
2019-05-19T02:09:49.282Z,99.90
2019-05-19T02:12:20.040Z,99.90
2019-05-19T02:14:49.840Z,99.90
2019-05-19T02:17:19.913Z,99.90
2019-05-19T02:19:49.962Z,99.90
2019-05-19T02:22:20.410Z,99.90
2019-05-19T02:24:50.506Z,99.90
2019-05-19T02:27:20.409Z,99.90
2019-05-19T02:29:50.335Z,99.90
2019-05-19T02:32:20.623Z,99.90
2019-05-19T02:34:50.352Z,99.90
2019-05-19T02:37:20.368Z,99.90
2019-05-19T02:39:50.420Z,99.90
2019-05-19T02:42:22.612Z,99.90
2019-05-19T02:44:54.215Z,99.90
2019-05-19T02:47:24.894Z,99.90
2019-05-19T02:49:56.978Z,99.90
2019-05-19T02:52:28.614Z,99.90
2019-05-19T02:55:01.341Z,99.90
2019-05-19T02:57:32.348Z,99.90
2019-05-19T03:00:02.346Z,99.90
2019-05-19T03:02:31.997Z,99.90
2019-05-19T03:05:02.455Z,99.90
2019-05-19T03:07:32.117Z,99.90
2019-05-19T03:10:01.842Z,99.90
2019-05-19T03:12:31.671Z,99.90
2019-05-19T03:15:01.411Z,99.90
2019-05-19T03:17:31.236Z,99.90
2019-05-19T03:20:00.943Z,99.90
2019-05-19T03:22:30.616Z,99.90
2019-05-19T03:25:00.838Z,99.90
2019-05-19T03:27:30.689Z,99.90
2019-05-19T03:30:19.306Z,99.90
2019-05-19T03:32:53.551Z,99.90
2019-05-19T03:35:23.258Z,99.90
2019-05-19T03:37:52.953Z,99.90
2019-05-19T03:40:22.693Z,99.90
2019-05-19T03:42:52.584Z,99.90
2019-05-19T03:45:22.311Z,99.90
2019-05-19T03:47:51.982Z,99.90
2019-05-19T03:50:21.682Z,99.90
2019-05-19T03:52:51.367Z,99.90
2019-05-19T03:55:21.355Z,99.90
2019-05-19T03:57:51.094Z,99.90
2019-05-19T04:00:20.909Z,99.90
2019-05-19T04:02:50.609Z,99.90
2019-05-19T04:05:20.314Z,99.90
2019-05-19T04:07:50.367Z,99.90
2019-05-19T04:10:20.138Z,99.90
2019-05-19T04:12:49.912Z,99.90
2019-05-19T04:15:20.002Z,99.90
2019-05-19T04:17:49.715Z,99.90
2019-05-19T04:20:19.467Z,99.90
2019-05-19T04:22:49.167Z,99.90
2019-05-19T04:25:18.867Z,99.90
2019-05-19T04:27:49.137Z,99.90
2019-05-19T04:30:19.405Z,99.90
2019-05-19T04:32:49.115Z,99.90
2019-05-19T04:35:18.789Z,99.90
2019-05-19T04:37:48.593Z,99.90
2019-05-19T04:40:18.423Z,99.90
2019-05-19T04:42:48.162Z,99.90
2019-05-19T04:45:17.933Z,99.90
2019-05-19T04:47:47.763Z,99.90
2019-05-19T04:50:17.947Z,99.90
2019-05-19T04:52:47.850Z,99.90
2019-05-19T04:55:17.854Z,99.90
2019-05-19T04:57:47.565Z,99.90
2019-05-19T05:00:17.435Z,99.90
2019-05-19T05:02:47.248Z,99.90
2019-05-19T05:05:17.427Z,99.90
2019-05-19T05:07:47.571Z,99.90
2019-05-19T05:10:17.871Z,99.90
2019-05-19T05:12:47.939Z,99.90
2019-05-19T05:15:17.938Z,99.90
2019-05-19T05:17:48.083Z,99.90
2019-05-19T05:20:18.344Z,99.90
2019-05-19T05:22:48.586Z,99.90
2019-05-19T05:25:18.895Z,99.90
2019-05-19T05:27:49.035Z,99.90
2019-05-19T05:30:19.124Z,99.90
2019-05-19T05:32:48.986Z,99.90
2019-05-19T05:35:18.663Z,99.90
2019-05-19T05:40:17.619Z,99.90
2019-05-19T05:42:47.601Z,99.90
2019-05-19T05:45:17.258Z,99.90
2019-05-19T05:47:47.122Z,99.90
2019-05-19T05:50:16.910Z,99.90
2019-05-19T05:52:46.753Z,99.90
2019-05-19T05:55:16.845Z,99.90
2019-05-19T05:57:46.797Z,99.90
2019-05-19T06:00:16.654Z,99.90
2019-05-19T06:02:46.626Z,99.90
2019-05-19T06:05:16.810Z,99.90
2019-05-19T06:07:47.160Z,99.90
2019-05-19T06:10:17.954Z,99.90
2019-05-19T06:12:47.922Z,99.90
2019-05-19T06:15:18.307Z,99.90
2019-05-19T06:17:48.158Z,99.90
2019-05-19T06:20:18.455Z,99.90
2019-05-19T06:22:56.374Z,99.90
2019-05-19T06:25:19.813Z,99.90
2019-05-19T06:27:49.510Z,99.90
2019-05-19T06:30:19.939Z,99.90
2019-05-19T06:32:52.314Z,99.90
2019-05-19T06:35:22.462Z,99.90
2019-05-19T06:37:52.381Z,99.90
2019-05-19T06:40:22.890Z,99.90
2019-05-19T06:42:52.842Z,99.90
2019-05-19T06:45:23.575Z,99.90
2019-05-19T06:47:53.694Z,99.90
2019-05-19T06:50:25.001Z,99.90
2019-05-19T06:53:10.936Z,99.90
2019-05-19T06:55:26.420Z,99.90
2019-05-19T06:57:56.984Z,99.90
2019-05-19T07:00:26.999Z,99.90
2019-05-19T07:02:56.950Z,99.90
2019-05-19T07:05:27.418Z,99.90
2019-05-19T07:07:57.901Z,99.90
2019-05-19T07:10:28.295Z,99.90
2019-05-19T07:12:58.686Z,99.90
2019-05-19T07:15:28.738Z,99.90
2019-05-19T07:17:58.806Z,99.90
2019-05-19T07:20:29.291Z,99.90
2019-05-19T07:22:59.011Z,99.90
2019-05-19T07:25:29.434Z,99.90
2019-05-19T07:27:59.137Z,99.90
2019-05-19T07:30:29.046Z,99.90
2019-05-19T07:32:59.113Z,99.90
2019-05-19T07:35:29.093Z,99.90
2019-05-19T07:37:59.242Z,99.90
2019-05-19T07:40:29.409Z,99.90
2019-05-19T07:42:59.775Z,99.90
2019-05-19T07:45:29.751Z,99.90
2019-05-19T07:47:59.823Z,99.90
2019-05-19T07:50:30.137Z,99.90
2019-05-19T07:53:00.549Z,99.90
2019-05-19T07:55:30.754Z,99.90
2019-05-19T07:58:01.510Z,99.90
2019-05-19T08:00:31.299Z,99.90
2019-05-19T08:03:01.557Z,99.90
2019-05-19T08:05:31.269Z,99.90
2019-05-19T08:08:01.383Z,99.90
2019-05-19T08:10:31.226Z,99.90
2019-05-19T08:13:01.717Z,99.90
2019-05-19T08:15:31.588Z,99.90
2019-05-19T08:18:01.447Z,99.90
2019-05-19T08:20:31.422Z,99.90
2019-05-19T08:23:01.702Z,99.90
2019-05-19T08:25:31.682Z,99.90
2019-05-19T08:28:08.441Z,99.90
2019-05-19T08:30:33.440Z,99.90
2019-05-19T08:33:03.408Z,99.90
2019-05-19T08:35:33.591Z,99.90
2019-05-19T08:38:03.422Z,99.90
2019-05-19T08:40:33.535Z,99.90
2019-05-19T08:43:03.278Z,99.90
2019-05-19T08:45:33.235Z,99.90
2019-05-19T08:48:03.274Z,99.90
2019-05-19T08:50:33.348Z,99.90
2019-05-19T08:53:03.058Z,99.90
2019-05-19T08:55:33.201Z,99.90
2019-05-19T08:58:03.353Z,99.90
2019-05-19T09:00:38.069Z,99.90
2019-05-19T09:03:06.707Z,99.90
2019-05-19T09:05:36.638Z,99.90
2019-05-19T09:08:06.787Z,99.90
2019-05-19T09:10:36.553Z,99.90
2019-05-19T09:13:06.746Z,99.90
2019-05-19T09:15:36.970Z,99.90
2019-05-19T09:18:07.786Z,99.90
2019-05-19T09:20:37.968Z,99.90
2019-05-19T09:23:08.331Z,99.90
2019-05-19T09:25:38.102Z,99.90
2019-05-19T09:28:07.902Z,99.90
2019-05-19T09:30:38.260Z,99.90
2019-05-19T09:33:08.630Z,99.90
2019-05-19T09:35:39.230Z,99.90
2019-05-19T09:38:09.319Z,99.90
2019-05-19T09:40:39.278Z,97.90
2019-05-19T09:43:09.344Z,99.70
2019-05-19T09:45:39.393Z,99.10
2019-05-19T09:48:09.387Z,98.40
2019-05-19T09:50:39.322Z,98.70
2019-05-19T09:53:08.989Z,98.60
2019-05-19T09:55:39.055Z,97.70
2019-05-19T09:58:09.125Z,97.20
2019-05-19T10:00:39.089Z,98.00
2019-05-19T10:03:08.750Z,97.70
2019-05-19T10:05:39.470Z,94.50
2019-05-19T10:08:09.579Z,96.50
2019-05-19T10:11:01.138Z,99.20
2019-05-19T10:13:31.222Z,96.10
2019-05-19T10:16:01.120Z,95.10
2019-05-19T10:18:31.183Z,99.80
2019-05-19T10:21:01.195Z,99.30
2019-05-19T10:23:30.862Z,96.70
2019-05-19T10:26:00.879Z,98.20
2019-05-19T10:28:30.651Z,98.90
2019-05-19T10:31:00.474Z,95.80
2019-05-19T10:33:30.183Z,97.00
2019-05-19T10:36:00.307Z,95.60
2019-05-19T10:38:29.997Z,98.00
2019-05-19T10:41:00.235Z,94.60
2019-05-19T10:43:30.419Z,92.80
2019-05-19T10:46:00.574Z,94.20
2019-05-19T10:48:30.704Z,94.30
2019-05-19T10:51:00.626Z,94.70
2019-05-19T10:53:30.796Z,97.70
2019-05-19T10:56:00.757Z,93.30
2019-05-19T10:58:30.747Z,92.20
2019-05-19T11:01:00.798Z,93.20
2019-05-19T11:03:31.093Z,95.90
2019-05-19T11:06:00.931Z,95.30
2019-05-19T11:08:31.003Z,94.50
2019-05-19T11:11:00.778Z,95.60
2019-05-19T11:13:31.025Z,93.50
2019-05-19T11:16:00.732Z,95.00
2019-05-19T11:18:30.802Z,93.40
2019-05-19T11:21:00.932Z,93.70
2019-05-19T11:23:31.833Z,92.30
2019-05-19T11:26:01.498Z,93.60
2019-05-19T11:28:31.478Z,92.60
2019-05-19T11:31:01.451Z,93.50
2019-05-19T11:33:31.514Z,94.30
2019-05-19T11:36:01.698Z,93.20
2019-05-19T11:38:31.863Z,92.70
2019-05-19T11:41:01.731Z,91.90
2019-05-19T11:43:31.748Z,91.80
2019-05-19T11:46:01.654Z,92.20
2019-05-19T11:48:31.776Z,91.70
2019-05-19T11:51:01.444Z,91.50
2019-05-19T11:53:31.179Z,90.50
2019-05-19T11:56:06.545Z,90.50
2019-05-19T11:58:32.823Z,90.50
2019-05-19T12:01:03.680Z,90.50
2019-05-19T12:03:34.102Z,90.90
2019-05-19T12:06:04.151Z,90.50
2019-05-19T12:08:34.152Z,90.50
2019-05-19T12:11:03.813Z,93.60
2019-05-19T12:13:35.111Z,91.80
2019-05-19T12:16:04.959Z,92.00
2019-05-19T12:18:35.056Z,92.10
2019-05-19T12:21:04.750Z,90.70
2019-05-19T12:23:34.825Z,91.70
2019-05-19T12:26:04.750Z,92.70
2019-05-19T12:28:34.738Z,92.20
2019-05-19T12:31:04.401Z,91.20
2019-05-19T12:33:34.508Z,90.20
2019-05-19T12:36:04.363Z,88.00
2019-05-19T12:38:34.075Z,88.80
2019-05-19T12:41:03.982Z,90.00
2019-05-19T12:43:33.643Z,90.60
2019-05-19T12:46:03.334Z,92.00
2019-05-19T12:48:33.460Z,92.20
2019-05-19T12:51:03.363Z,89.60
2019-05-19T12:53:33.084Z,91.20
2019-05-19T12:56:02.738Z,90.00
2019-05-19T12:58:32.854Z,92.70
2019-05-19T13:01:02.746Z,92.10
2019-05-19T13:03:32.772Z,91.70
2019-05-19T13:06:02.482Z,87.80
2019-05-19T13:08:32.162Z,90.20
2019-05-19T13:11:01.861Z,87.00
2019-05-19T13:13:31.580Z,88.20
2019-05-19T13:16:01.276Z,91.30
2019-05-19T13:18:30.931Z,86.20
2019-05-19T13:21:00.862Z,90.20
2019-05-19T13:23:30.542Z,89.10
2019-05-19T13:26:00.426Z,90.70
2019-05-19T13:28:30.086Z,89.10
2019-05-19T13:30:59.811Z,86.20
2019-05-19T13:33:29.473Z,91.60
2019-05-19T13:35:59.178Z,90.50
2019-05-19T13:38:28.825Z,89.00
2019-05-19T13:40:58.554Z,89.00
2019-05-19T13:43:28.594Z,83.60
2019-05-19T13:45:58.293Z,85.10
2019-05-19T13:48:27.973Z,85.10
2019-05-19T13:50:57.824Z,85.90
2019-05-19T13:53:27.530Z,89.00
2019-05-19T13:55:58.142Z,91.40
2019-05-19T13:58:28.040Z,90.10
2019-05-19T14:00:58.200Z,80.90
2019-05-19T14:03:28.167Z,91.00
2019-05-19T14:05:58.027Z,80.70
2019-05-19T14:08:28.098Z,82.40
2019-05-19T14:10:57.826Z,81.60
2019-05-19T14:13:27.935Z,85.20
2019-05-19T14:15:57.673Z,86.10
2019-05-19T14:18:27.762Z,84.50
2019-05-19T14:20:58.106Z,86.30
2019-05-19T14:23:28.211Z,90.50
2019-05-19T14:25:58.454Z,86.10
2019-05-19T14:28:28.555Z,81.40
2019-05-19T14:30:58.801Z,87.10
2019-05-19T14:33:28.962Z,91.40
2019-05-19T14:35:59.151Z,92.00
2019-05-19T14:38:29.334Z,92.20
2019-05-19T14:40:59.426Z,94.00
2019-05-19T14:43:29.950Z,94.90
2019-05-19T14:46:00.137Z,93.40
2019-05-19T14:48:30.301Z,93.30
2019-05-19T14:51:00.490Z,92.70
2019-05-19T14:53:30.186Z,94.60
2019-05-19T14:56:01.520Z,93.60
2019-05-19T14:58:31.178Z,94.50
2019-05-19T15:01:01.088Z,93.80
2019-05-19T15:03:30.954Z,92.80
2019-05-19T15:06:01.511Z,92.00
2019-05-19T15:08:31.197Z,92.00
2019-05-19T15:11:01.610Z,91.10
2019-05-19T15:13:33.750Z,90.80
2019-05-19T15:16:03.844Z,90.00
2019-05-19T15:18:33.906Z,90.70
2019-05-19T15:21:03.948Z,90.40
2019-05-19T15:23:34.035Z,91.80
2019-05-19T15:26:04.122Z,92.90
2019-05-19T15:28:34.150Z,90.50
2019-05-19T15:31:04.114Z,92.60
2019-05-19T15:33:38.178Z,90.90
2019-05-19T15:36:05.578Z,93.00
2019-05-19T15:38:35.570Z,88.70
2019-05-19T15:41:05.321Z,91.30
2019-05-19T15:43:35.388Z,88.40
2019-05-19T15:46:05.142Z,93.10
2019-05-19T15:48:35.114Z,91.60
2019-05-19T15:51:05.595Z,90.90
2019-05-19T15:53:36.281Z,92.30
2019-05-19T15:56:06.504Z,89.90
2019-05-19T15:58:36.511Z,92.00
2019-05-19T16:01:06.566Z,94.70
2019-05-19T16:03:37.426Z,92.20
2019-05-19T16:06:07.525Z,95.60
2019-05-19T16:08:37.502Z,95.80
2019-05-19T16:11:07.463Z,96.00
2019-05-19T16:13:37.454Z,95.20
2019-05-19T16:16:07.662Z,95.40
2019-05-19T16:18:37.841Z,93.90
2019-05-19T16:21:07.930Z,94.80
2019-05-19T16:23:37.605Z,93.10
2019-05-19T16:26:07.450Z,91.80
2019-05-19T16:28:37.139Z,96.80
2019-05-19T16:31:06.981Z,97.00
2019-05-19T16:33:36.975Z,95.40
2019-05-19T16:36:07.993Z,93.70
2019-05-19T16:38:38.138Z,95.10
2019-05-19T16:41:08.519Z,91.60
2019-05-19T16:43:38.567Z,95.30
2019-05-19T16:46:08.566Z,93.80
2019-05-19T16:48:38.498Z,95.30
2019-05-19T16:51:08.814Z,93.10
2019-05-19T16:53:38.756Z,97.30
2019-05-19T16:56:08.718Z,98.00
2019-05-19T16:58:45.159Z,98.00
2019-05-19T17:01:10.707Z,98.80
2019-05-19T17:03:40.698Z,99.60
2019-05-19T17:06:10.460Z,98.10
2019-05-19T17:08:40.555Z,99.90
2019-05-19T17:11:18.054Z,99.50
2019-05-19T17:13:42.378Z,99.60
2019-05-19T17:16:12.904Z,99.10
2019-05-19T17:18:43.383Z,99.90
2019-05-19T17:21:13.547Z,99.70
2019-05-19T17:23:43.795Z,99.90
2019-05-19T17:26:13.958Z,99.90
2019-05-19T17:28:44.410Z,99.90
2019-05-19T17:31:14.616Z,99.90
2019-05-19T17:33:45.097Z,99.90
2019-05-19T17:36:15.243Z,99.90
2019-05-19T17:38:45.610Z,99.90
2019-05-19T17:41:15.587Z,99.90
2019-05-19T17:43:45.294Z,99.90
2019-05-19T17:46:15.365Z,99.90
2019-05-19T17:48:45.511Z,99.90
2019-05-19T17:51:15.360Z,99.90
2019-05-19T17:53:45.061Z,99.90
2019-05-19T17:56:15.882Z,99.90
2019-05-19T17:58:47.416Z,99.90
2019-05-19T18:01:17.554Z,99.90
2019-05-19T18:03:48.121Z,99.90
2019-05-19T18:06:18.452Z,99.90
2019-05-19T18:08:48.566Z,99.90
2019-05-19T18:11:18.243Z,99.90
2019-05-19T18:13:48.298Z,99.90
2019-05-19T18:16:17.978Z,99.90
2019-05-19T18:18:47.934Z,99.90
2019-05-19T18:21:18.055Z,99.90
2019-05-19T18:23:48.160Z,99.90
2019-05-19T18:26:18.241Z,99.90
2019-05-19T18:28:48.314Z,99.90
2019-05-19T18:31:18.181Z,99.90
2019-05-19T18:33:48.239Z,99.90
2019-05-19T18:36:18.277Z,99.90
2019-05-19T18:38:48.367Z,99.90
2019-05-19T18:41:18.646Z,99.90
2019-05-19T18:43:49.126Z,99.90
2019-05-19T18:46:19.384Z,99.90
2019-05-19T18:48:49.873Z,99.90
2019-05-19T18:51:19.930Z,99.90
2019-05-19T18:53:49.661Z,99.90
2019-05-19T18:56:20.398Z,99.90
2019-05-19T18:58:50.334Z,99.90
2019-05-19T19:01:20.523Z,99.90
2019-05-19T19:03:50.509Z,99.90
2019-05-19T19:06:20.204Z,99.90
2019-05-19T19:08:49.882Z,99.90
2019-05-19T19:11:19.666Z,99.90
2019-05-19T19:13:50.303Z,99.90
2019-05-19T19:16:20.137Z,99.90
2019-05-19T19:18:50.511Z,99.90
2019-05-19T19:21:21.647Z,99.90
2019-05-19T19:23:52.043Z,99.90
2019-05-19T19:26:21.790Z,99.90
2019-05-19T19:28:51.521Z,99.90
2019-05-19T19:31:21.199Z,99.90
2019-05-19T19:33:50.905Z,99.90
2019-05-19T19:36:20.609Z,99.90
2019-05-19T19:38:50.404Z,99.90
2019-05-19T19:41:20.087Z,99.90
2019-05-19T19:43:49.806Z,99.90
2019-05-19T19:46:20.320Z,99.90
2019-05-19T19:48:50.021Z,99.90
2019-05-19T19:51:19.702Z,99.90
2019-05-19T19:53:49.406Z,99.90
2019-05-19T19:56:19.091Z,99.90
2019-05-19T19:58:49.086Z,99.90
2019-05-19T20:01:18.789Z,99.90
2019-05-19T20:03:48.621Z,99.90
2019-05-19T20:06:18.286Z,99.90
2019-05-19T20:08:48.029Z,99.90
2019-05-19T20:11:17.698Z,99.90
2019-05-19T20:13:47.435Z,99.90
2019-05-19T20:16:17.144Z,99.90
2019-05-19T20:18:47.042Z,99.90
2019-05-19T20:21:16.842Z,99.90
2019-05-19T20:23:46.571Z,99.90
2019-05-19T20:26:16.255Z,99.90
2019-05-19T20:28:45.963Z,99.90
2019-05-19T20:31:15.641Z,99.90
2019-05-19T20:33:45.318Z,99.90
2019-05-19T20:36:14.995Z,99.90
2019-05-19T20:38:44.733Z,99.90
2019-05-19T20:41:14.836Z,99.90
2019-05-19T20:43:44.529Z,99.90
2019-05-19T20:46:14.237Z,99.90
2019-05-19T20:48:43.943Z,99.90
2019-05-19T20:51:13.650Z,99.90
2019-05-19T20:53:43.346Z,99.90
2019-05-19T20:56:13.534Z,99.90
2019-05-19T20:58:43.196Z,99.90
2019-05-19T21:01:13.076Z,99.90
2019-05-19T21:03:42.732Z,99.90
2019-05-19T21:06:12.434Z,99.90
2019-05-19T21:08:42.353Z,99.90
2019-05-19T21:11:12.217Z,99.90
2019-05-19T21:13:42.194Z,99.90
2019-05-19T21:16:12.404Z,99.90
2019-05-19T21:18:42.050Z,99.90
2019-05-19T21:21:11.742Z,99.90
2019-05-19T21:23:41.438Z,99.90
2019-05-19T21:26:11.135Z,99.90
2019-05-19T21:28:41.197Z,99.90
2019-05-19T21:31:10.943Z,99.90
2019-05-19T21:33:40.954Z,99.90
2019-05-19T21:36:10.712Z,99.90
2019-05-19T21:38:40.374Z,99.90
2019-05-19T21:41:10.106Z,99.90
2019-05-19T21:43:39.790Z,99.90
2019-05-19T21:46:09.674Z,99.90
2019-05-19T21:48:39.737Z,99.90
2019-05-19T21:51:09.447Z,99.90
2019-05-19T21:53:39.110Z,99.90
2019-05-19T21:56:08.858Z,99.90
2019-05-19T21:58:39.110Z,99.90
2019-05-19T22:01:22.310Z,99.90
2019-05-19T22:03:40.882Z,99.90
2019-05-19T22:06:11.133Z,99.90
2019-05-19T22:08:40.790Z,99.90
2019-05-19T22:11:10.502Z,99.90
2019-05-19T22:13:40.199Z,99.90
2019-05-19T22:16:13.223Z,99.90
2019-05-19T22:18:41.746Z,99.90
2019-05-19T22:21:11.755Z,99.90
2019-05-19T22:23:41.442Z,99.90
2019-05-19T22:26:11.146Z,99.90
2019-05-19T22:28:40.806Z,99.90
2019-05-19T22:31:10.506Z,99.90
2019-05-19T22:33:40.197Z,99.90
2019-05-19T22:36:10.102Z,99.90
2019-05-19T22:38:40.601Z,99.90
2019-05-19T22:41:10.750Z,99.90
2019-05-19T22:43:40.725Z,99.90
2019-05-19T22:46:10.674Z,99.90
2019-05-19T22:48:40.996Z,99.90
2019-05-19T22:51:10.703Z,99.90
2019-05-19T22:53:40.595Z,99.90
2019-05-19T22:56:10.330Z,99.90
2019-05-19T22:58:41.670Z,99.90
2019-05-19T23:01:12.006Z,99.90
2019-05-19T23:03:42.806Z,99.90
2019-05-19T23:06:12.900Z,99.90
2019-05-19T23:08:43.149Z,99.90
2019-05-19T23:11:13.219Z,99.90
2019-05-19T23:13:43.198Z,99.90
2019-05-19T23:16:13.398Z,99.90
2019-05-19T23:18:44.238Z,99.90
2019-05-19T23:21:14.095Z,99.90
2019-05-19T23:23:44.071Z,99.90
2019-05-19T23:26:14.125Z,99.90
2019-05-19T23:28:43.787Z,99.90
2019-05-19T23:31:13.957Z,99.90
2019-05-19T23:33:44.018Z,99.90
2019-05-19T23:36:14.097Z,99.90
2019-05-19T23:38:43.866Z,99.90
2019-05-19T23:41:16.370Z,99.90
2019-05-19T23:43:46.452Z,99.90
2019-05-19T23:46:16.886Z,99.90
2019-05-19T23:48:46.527Z,99.90
2019-05-19T23:51:16.950Z,99.90
2019-05-19T23:53:46.605Z,99.90
2019-05-19T23:56:16.988Z,99.90
2019-05-19T23:58:47.860Z,99.90
